Time;durP1;ratioP1;P1;durP2;ratioP2;P2;SDS_P1;SDS_P2;PMS_P1;PMS_P2;Temp;Humidity;BMP_temperature;BMP_pressure;BME280_temperature;BME280_humidity;BME280_pressure;Samples;Min_cycle;Max_cycle;Signal;HPM_P1;HPM_P2
2022/02/04 00:08:44;;;;;;;72.93;10.70;;;;;;;;;;5071600;28;20454;-67
2022/02/04 00:22:39;;;;;;;66.30;9.23;;;;;;;;;;5071954;28;20295;-67
2022/02/04 00:25:14;;;;;;;68.37;10.07;;;;;;;;;;5071665;28;20959;-67
2022/02/04 00:27:41;;;;;;;66.50;9.30;;;;;;;;;;5071389;28;20443;-66
2022/02/04 00:30:16;;;;;;;70.73;9.70;;;;;;;;;;5071784;28;20237;-67
2022/02/04 00:32:46;;;;;;;65.50;9.17;;;;;;;;;;5062807;28;20456;-68
2022/02/04 00:35:22;;;;;;;63.93;8.27;;;;;;;;;;5051547;28;20544;-67
2022/02/04 00:37:58;;;;;;;64.17;8.73;;;;;;;;;;5053265;28;20480;-67
2022/02/04 00:40:29;;;;;;;63.47;7.53;;;;;;;;;;5055683;28;20459;-68
2022/02/04 00:43:00;;;;;;;67.77;8.50;;;;;;;;;;5055285;28;20476;-69
2022/02/04 00:45:34;;;;;;;64.20;7.73;;;;;;;;;;5055536;28;20476;-68
2022/02/04 00:48:11;;;;;;;64.50;8.23;;;;;;;;;;5055115;28;20455;-68
2022/02/04 00:50:52;;;;;;;64.50;8.73;;;;;;;;;;5055473;28;20529;-68
2022/02/04 00:53:28;;;;;;;63.90;8.10;;;;;;;;;;5055056;28;20529;-68
2022/02/04 00:56:07;;;;;;;64.30;8.23;;;;;;;;;;5055345;28;20834;-69
2022/02/04 01:26:10;;;;;;;64.07;7.30;;;;;;;;;;5074784;28;20450;-68
2022/02/04 01:28:39;;;;;;;62.60;7.83;;;;;;;;;;5074732;28;20829;-68
2022/02/04 01:31:07;;;;;;;66.37;7.93;;;;;;;;;;5074475;28;20448;-68
2022/02/04 01:33:35;;;;;;;65.77;7.80;;;;;;;;;;5074489;28;20478;-68
2022/02/04 01:36:03;;;;;;;63.90;7.60;;;;;;;;;;5072691;28;20451;-68
2022/02/04 01:38:30;;;;;;;64.97;6.90;;;;;;;;;;5074226;28;20855;-68
2022/02/04 01:40:58;;;;;;;63.47;7.53;;;;;;;;;;5074670;28;20494;-68
2022/02/04 01:43:26;;;;;;;63.40;7.73;;;;;;;;;;5074341;28;20468;-69
2022/02/04 01:45:54;;;;;;;65.10;8.63;;;;;;;;;;5074507;28;20549;-68
2022/02/04 01:48:22;;;;;;;63.37;6.83;;;;;;;;;;5073727;28;20450;-68
2022/02/04 01:50:51;;;;;;;63.57;7.03;;;;;;;;;;5074089;28;20448;-68
2022/02/04 01:53:19;;;;;;;63.70;6.53;;;;;;;;;;5074083;28;20554;-68
2022/02/04 01:55:46;;;;;;;63.93;7.43;;;;;;;;;;5074446;28;20823;-69
2022/02/04 01:58:14;;;;;;;64.27;8.03;;;;;;;;;;5074012;28;20598;-68
2022/02/04 02:00:41;;;;;;;65.80;7.27;;;;;;;;;;5074156;28;20454;-67
2022/02/04 02:03:09;;;;;;;66.73;7.50;;;;;;;;;;5073876;28;20478;-68
2022/02/04 02:05:36;;;;;;;61.77;6.67;;;;;;;;;;5073817;28;20555;-68
2022/02/04 02:08:09;;;;;;;64.30;7.27;;;;;;;;;;5065020;28;20835;-68
2022/02/04 02:10:36;;;;;;;62.53;6.30;;;;;;;;;;5053822;28;20461;-68
2022/02/04 02:13:12;;;;;;;63.95;6.93;;;;;;;;;;5053717;28;20488;-68
2022/02/04 02:15:48;;;;;;;63.30;6.60;;;;;;;;;;5053510;28;20713;-68
2022/02/04 02:43:22;;;;;;;62.87;6.83;;;;;;;;;;5052994;28;20810;-68
2022/02/04 02:49:03;;;;;;;61.50;6.00;;;;;;;;;;5061794;28;20432;-68
2022/02/04 02:51:51;;;;;;;63.90;6.10;;;;;;;;;;5073070;28;20551;-68
2022/02/04 02:57:27;;;;;;;62.95;6.20;;;;;;;;;;5072925;28;20558;-67
2022/02/04 02:59:59;;;;;;;61.07;5.77;;;;;;;;;;5072005;28;20206;-69
2022/02/04 03:02:26;;;;;;;64.53;6.10;;;;;;;;;;5072837;28;20543;-68
2022/02/04 03:04:54;;;;;;;62.00;5.80;;;;;;;;;;5072924;28;20543;-69
2022/02/04 03:07:21;;;;;;;63.00;6.37;;;;;;;;;;5072536;28;20527;-68
2022/02/04 03:09:49;;;;;;;62.77;7.20;;;;;;;;;;5072369;28;20452;-68
2022/02/04 03:12:16;;;;;;;64.47;6.33;;;;;;;;;;5052439;28;20459;-68
2022/02/04 03:14:44;;;;;;;63.37;6.00;;;;;;;;;;5052396;28;20472;-68
2022/02/04 03:17:13;;;;;;;62.13;6.50;;;;;;;;;;5052516;28;20448;-68
2022/02/04 03:19:45;;;;;;;63.07;7.13;;;;;;;;;;5052459;28;21016;-69
2022/02/04 03:22:13;;;;;;;62.70;6.37;;;;;;;;;;5052514;28;20445;-69
2022/02/04 03:24:44;;;;;;;63.10;6.03;;;;;;;;;;5052320;28;20461;-68
2022/02/04 03:27:14;;;;;;;63.10;6.40;;;;;;;;;;5052396;28;20452;-68
2022/02/04 03:29:59;;;;;;;62.07;6.00;;;;;;;;;;5052348;28;20452;-68
2022/02/04 03:32:26;;;;;;;64.47;7.10;;;;;;;;;;5052261;28;20507;-68
2022/02/04 03:34:53;;;;;;;65.20;6.53;;;;;;;;;;5052144;28;20528;-68
2022/02/04 03:37:20;;;;;;;62.27;5.97;;;;;;;;;;5051751;28;20449;-68
2022/02/04 03:39:48;;;;;;;63.10;6.30;;;;;;;;;;5051998;28;20452;-68
2022/02/04 03:42:16;;;;;;;62.30;5.93;;;;;;;;;;5053857;28;20460;-68
2022/02/04 03:44:43;;;;;;;61.83;6.20;;;;;;;;;;5072023;28;20559;-68
2022/02/04 03:47:10;;;;;;;63.47;6.90;;;;;;;;;;5071884;28;20444;-68
2022/02/04 03:49:37;;;;;;;62.90;6.70;;;;;;;;;;5071861;28;20448;-69
2022/02/04 03:52:05;;;;;;;64.20;6.67;;;;;;;;;;5072514;28;20526;-68
2022/02/04 03:54:32;;;;;;;65.07;6.17;;;;;;;;;;5072041;28;20468;-68
2022/02/04 03:56:59;;;;;;;63.50;6.60;;;;;;;;;;5072127;28;20538;-68
2022/02/04 03:59:28;;;;;;;63.37;6.57;;;;;;;;;;5071577;28;21007;-69
2022/02/04 04:01:55;;;;;;;67.03;6.93;;;;;;;;;;5072980;28;21017;-68
2022/02/04 04:04:27;;;;;;;61.90;6.10;;;;;;;;;;5093923;28;20249;-68
2022/02/04 04:06:55;;;;;;;63.77;6.43;;;;;;;;;;5093453;28;20454;-69
2022/02/04 04:09:22;;;;;;;61.70;6.30;;;;;;;;;;5093324;28;20474;-68
2022/02/04 04:11:49;;;;;;;62.57;6.30;;;;;;;;;;5093802;28;20451;-68
2022/02/04 04:14:17;;;;;;;70.40;6.50;;;;;;;;;;5089104;28;20469;-68
2022/02/04 04:16:46;;;;;;;64.90;7.03;;;;;;;;;;5073886;28;20457;-68
2022/02/04 04:19:14;;;;;;;64.17;7.13;;;;;;;;;;5052415;28;20480;-68
2022/02/04 04:21:41;;;;;;;65.40;7.50;;;;;;;;;;5051599;28;20530;-67
2022/02/04 04:24:08;;;;;;;62.30;6.47;;;;;;;;;;5051445;28;20464;-68
2022/02/04 04:26:38;;;;;;;64.37;6.97;;;;;;;;;;5051717;28;20456;-69
2022/02/04 04:29:05;;;;;;;61.70;6.00;;;;;;;;;;5051067;28;20828;-68
2022/02/04 04:31:32;;;;;;;63.27;7.23;;;;;;;;;;5051699;28;20449;-68
2022/02/04 04:34:01;;;;;;;62.50;6.70;;;;;;;;;;5051489;28;20551;-68
2022/02/04 04:36:28;;;;;;;62.33;5.93;;;;;;;;;;5051545;28;20455;-68
2022/02/04 04:39:02;;;;;;;63.10;6.53;;;;;;;;;;5051479;28;20522;-68
2022/02/04 04:41:39;;;;;;;62.83;6.13;;;;;;;;;;5051569;28;20457;-68
2022/02/04 05:28:27;;;;;;;64.87;7.50;;;;;;;;;;5074326;28;20204;-68
2022/02/04 05:30:54;;;;;;;66.03;7.53;;;;;;;;;;5075069;28;20448;-68
2022/02/04 05:33:21;;;;;;;63.20;6.60;;;;;;;;;;5074328;28;20546;-68
2022/02/04 05:35:49;;;;;;;65.53;7.63;;;;;;;;;;5074277;28;20535;-68
2022/02/04 05:38:19;;;;;;;63.40;7.37;;;;;;;;;;5073967;28;20519;-68
2022/02/04 05:40:49;;;;;;;64.87;7.87;;;;;;;;;;5074533;28;20448;-68
2022/02/04 05:43:20;;;;;;;65.90;8.70;;;;;;;;;;5074262;28;20476;-68
2022/02/04 05:45:56;;;;;;;64.70;7.70;;;;;;;;;;5074335;28;20448;-68
2022/02/04 05:48:24;;;;;;;66.72;7.45;;;;;;;;;;5073776;28;20451;-68
2022/02/04 05:51:04;;;;;;;69.00;11.35;;;;;;;;;;5074355;28;20216;-68
2022/02/04 05:53:38;;;;;;;68.45;10.70;;;;;;;;;;5070885;28;20325;-68
2022/02/04 05:56:12;;;;;;;64.20;7.93;;;;;;;;;;5054170;28;20228;-69
2022/02/04 05:58:49;;;;;;;66.20;7.93;;;;;;;;;;5053546;28;20228;-69
2022/02/04 06:01:30;;;;;;;62.70;7.63;;;;;;;;;;5054252;28;20452;-69
2022/02/04 06:04:11;;;;;;;65.97;10.00;;;;;;;;;;5053792;28;20689;-68
2022/02/04 06:06:55;;;;;;;65.40;8.57;;;;;;;;;;5053931;28;20510;-69
2022/02/04 06:12:29;;;;;;;66.83;9.00;;;;;;;;;;5045007;28;20987;-68
2022/02/04 06:15:10;;;;;;;64.37;7.50;;;;;;;;;;5053674;28;20871;-70
2022/02/04 06:23:09;;;;;;;65.40;8.93;;;;;;;;;;5053080;28;20213;-69
2022/02/04 06:25:38;;;;;;;64.63;7.80;;;;;;;;;;5052546;28;20857;-68
2022/02/04 06:28:05;;;;;;;66.20;7.93;;;;;;;;;;5073133;28;20531;-69
2022/02/04 06:30:33;;;;;;;65.27;7.90;;;;;;;;;;5073520;28;20210;-69
2022/02/04 06:33:00;;;;;;;64.25;7.63;;;;;;;;;;5073258;28;20984;-68
2022/02/04 06:35:28;;;;;;;63.97;7.80;;;;;;;;;;5073326;28;20296;-71
2022/02/04 06:37:55;;;;;;;66.40;8.60;;;;;;;;;;5072951;28;20205;-68
2022/02/04 06:40:22;;;;;;;65.85;8.70;;;;;;;;;;5073047;28;20460;-68
2022/02/04 06:42:51;;;;;;;65.95;8.50;;;;;;;;;;5072906;28;20721;-68
2022/02/04 06:45:18;;;;;;;66.33;8.73;;;;;;;;;;5073252;28;20577;-68
2022/02/04 06:47:46;;;;;;;68.00;9.37;;;;;;;;;;5072826;28;20450;-68
2022/02/04 06:50:14;;;;;;;67.30;9.65;;;;;;;;;;5073257;28;20443;-68
2022/02/04 06:52:42;;;;;;;67.23;9.50;;;;;;;;;;5072914;28;20206;-68
2022/02/04 06:55:09;;;;;;;66.47;9.02;;;;;;;;;;5072862;28;20462;-69
2022/02/04 06:57:36;;;;;;;65.57;9.15;;;;;;;;;;5071079;28;20206;-68
2022/02/04 07:00:06;;;;;;;67.45;9.68;;;;;;;;;;5072975;28;20261;-68
2022/02/04 07:02:33;;;;;;;65.72;8.45;;;;;;;;;;5072662;28;20322;-69
2022/02/04 07:05:07;;;;;;;65.85;8.25;;;;;;;;;;5072986;28;20297;-69
2022/02/04 07:07:35;;;;;;;63.20;7.40;;;;;;;;;;5063647;28;20299;-69
2022/02/04 07:10:10;;;;;;;64.45;8.20;;;;;;;;;;5053048;28;20479;-69
2022/02/04 07:12:49;;;;;;;64.95;7.97;;;;;;;;;;5052677;28;20202;-68
2022/02/04 07:15:44;;;;;;;62.38;6.43;;;;;;;;;;5052672;28;20218;-68
2022/02/04 07:21:02;;;;;;;63.07;6.83;;;;;;;;;;5052386;28;20705;-69
2022/02/04 07:23:30;;;;;;;65.07;8.10;;;;;;;;;;5052744;28;20464;-69
2022/02/04 07:25:57;;;;;;;64.13;7.45;;;;;;;;;;5052474;28;20456;-68
2022/02/04 07:28:24;;;;;;;67.10;8.27;;;;;;;;;;5052201;28;20212;-67
2022/02/04 07:30:54;;;;;;;66.35;9.32;;;;;;;;;;5051373;28;20948;-68
2022/02/04 07:33:25;;;;;;;66.25;9.38;;;;;;;;;;5052419;28;20230;-69
2022/02/04 07:38:51;;;;;;;71.27;9.07;;;;;;;;;;5051849;28;20303;-69
2022/02/04 07:41:19;;;;;;;67.53;10.02;;;;;;;;;;5052405;28;20502;-69
2022/02/04 07:43:46;;;;;;;68.97;8.88;;;;;;;;;;5052072;28;20229;-68
2022/02/04 07:46:18;;;;;;;71.18;9.02;;;;;;;;;;5052098;28;20202;-68
2022/02/04 07:48:45;;;;;;;67.20;8.80;;;;;;;;;;5051817;28;20702;-69
2022/02/04 07:51:12;;;;;;;65.27;8.30;;;;;;;;;;5051832;28;20453;-69
2022/02/04 07:53:39;;;;;;;66.43;8.25;;;;;;;;;;5052158;28;20876;-69
2022/02/04 07:56:06;;;;;;;66.43;9.20;;;;;;;;;;5052044;28;20220;-69
2022/02/04 07:58:34;;;;;;;66.93;8.57;;;;;;;;;;5051723;28;20320;-69
2022/02/04 08:01:03;;;;;;;65.15;8.15;;;;;;;;;;5058965;28;20206;-68
2022/02/04 08:03:37;;;;;;;70.93;8.35;;;;;;;;;;5071727;28;20226;-69
2022/02/04 08:06:09;;;;;;;68.80;8.75;;;;;;;;;;5072221;28;20622;-69
2022/02/04 08:08:43;;;;;;;66.60;9.15;;;;;;;;;;5071709;28;20209;-68
2022/02/04 08:11:22;;;;;;;64.38;7.72;;;;;;;;;;5071953;28;20208;-68
2022/02/04 08:14:09;;;;;;;68.43;9.20;;;;;;;;;;5071781;28;20229;-68
2022/02/04 08:25:11;;;;;;;64.65;8.75;;;;;;;;;;5050281;28;20274;-67
2022/02/04 08:39:36;;;;;;;65.43;7.68;;;;;;;;;;5129749;27;20565;-66
2022/02/04 08:48:00;;;;;;;64.80;8.20;;;;;;;;;;5116284;27;20857;-66
2022/02/04 08:50:59;;;;;;;64.90;7.37;;;;;;;;;;5141200;28;20693;-66
2022/02/04 08:53:49;;;;;;;63.90;8.13;;;;;;;;;;5141205;27;20536;-67
2022/02/04 08:56:21;;;;;;;65.28;8.57;;;;;;;;;;5140680;27;20211;-67
2022/02/04 08:58:53;;;;;;;64.47;7.53;;;;;;;;;;5140846;27;20267;-67
2022/02/04 09:01:24;;;;;;;63.00;7.80;;;;;;;;;;5141524;27;20446;-66
2022/02/04 09:04:03;;;;;;;66.97;7.60;;;;;;;;;;5139280;27;20564;-67
2022/02/04 09:06:37;;;;;;;66.67;7.40;;;;;;;;;;5141616;27;20444;-67
2022/02/04 09:09:10;;;;;;;63.37;7.07;;;;;;;;;;5140489;27;20477;-66
2022/02/04 09:11:44;;;;;;;63.17;7.03;;;;;;;;;;5141512;27;20479;-67
2022/02/04 09:17:10;;;;;;;63.80;7.40;;;;;;;;;;5140886;27;20444;-67
2022/02/04 09:19:47;;;;;;;64.17;6.57;;;;;;;;;;5141791;27;20508;-67
2022/02/04 09:22:38;;;;;;;65.57;7.53;;;;;;;;;;5132138;27;20596;-66
2022/02/04 09:25:05;;;;;;;64.47;6.90;;;;;;;;;;5135066;27;20449;-66
2022/02/04 09:27:32;;;;;;;63.83;6.77;;;;;;;;;;5141782;27;20508;-67
2022/02/04 09:29:59;;;;;;;62.50;6.10;;;;;;;;;;5140951;27;20501;-67
2022/02/04 09:32:27;;;;;;;62.10;6.10;;;;;;;;;;5134790;27;20568;-67
2022/02/04 09:34:54;;;;;;;61.20;5.73;;;;;;;;;;5137754;27;20442;-67
2022/02/04 09:37:23;;;;;;;61.57;5.93;;;;;;;;;;5139553;27;20445;-67
2022/02/04 09:39:50;;;;;;;63.30;6.00;;;;;;;;;;5140740;27;20517;-67
2022/02/04 09:42:17;;;;;;;61.40;5.10;;;;;;;;;;5141085;27;20711;-68
2022/02/04 09:44:44;;;;;;;59.60;4.47;;;;;;;;;;5126125;27;20469;-67
2022/02/04 09:47:17;;;;;;;60.50;5.47;;;;;;;;;;5126435;28;20510;-66
2022/02/04 09:49:48;;;;;;;59.73;4.60;;;;;;;;;;5127727;28;20446;-67
2022/02/04 10:09:08;;;;;;;60.17;4.97;;;;;;;;;;5114581;28;20423;-67
2022/02/04 10:17:23;;;;;;;61.03;5.23;;;;;;;;;;5114524;28;20409;-67
2022/02/04 10:19:50;;;;;;;62.17;4.53;;;;;;;;;;5114940;28;20956;-67
2022/02/04 10:22:18;;;;;;;59.20;3.80;;;;;;;;;;5114799;27;20470;-67
2022/02/04 10:24:54;;;;;;;59.00;3.23;;;;;;;;;;5114921;28;20458;-67
2022/02/04 10:27:23;;;;;;;58.77;3.50;;;;;;;;;;5113991;28;20445;-67
2022/02/04 10:29:55;;;;;;;59.90;3.20;;;;;;;;;;5114536;28;20434;-67
2022/02/04 10:32:26;;;;;;;59.57;3.63;;;;;;;;;;5114426;28;20482;-67
2022/02/04 10:35:03;;;;;;;59.40;3.80;;;;;;;;;;5114519;28;20529;-67
2022/02/04 10:37:32;;;;;;;58.77;4.00;;;;;;;;;;5111749;28;20482;-67
2022/02/04 10:40:08;;;;;;;59.67;4.30;;;;;;;;;;5114105;27;20457;-67
2022/02/04 10:42:44;;;;;;;60.73;4.60;;;;;;;;;;5114337;28;20813;-67
2022/02/04 10:48:25;;;;;;;59.00;3.90;;;;;;;;;;5113783;27;20930;-68
2022/02/04 10:51:23;;;;;;;60.57;4.27;;;;;;;;;;5114497;28;20449;-68
2022/02/04 10:57:07;;;;;;;59.83;4.20;;;;;;;;;;5130311;27;20515;-67
2022/02/04 11:02:41;;;;;;;58.90;3.53;;;;;;;;;;5122259;27;20473;-68
2022/02/04 11:05:20;;;;;;;58.63;3.60;;;;;;;;;;5109471;28;20435;-68
2022/02/04 11:10:59;;;;;;;58.97;3.37;;;;;;;;;;5089080;28;20423;-67
2022/02/04 11:33:43;;;;;;;59.10;3.40;;;;;;;;;;5088695;28;20965;-68
2022/02/04 11:36:32;;;;;;;58.17;2.90;;;;;;;;;;5088248;28;20485;-68
2022/02/04 11:48:14;;;;;;;60.20;3.80;;;;;;;;;;5085768;28;20526;-68
2022/02/04 11:51:12;;;;;;;58.60;3.67;;;;;;;;;;5085829;28;20447;-68
2022/02/04 11:53:56;;;;;;;58.97;3.90;;;;;;;;;;5106974;28;20836;-69
2022/02/04 11:56:23;;;;;;;58.67;3.63;;;;;;;;;;5108421;28;20516;-68
2022/02/04 11:59:02;;;;;;;58.47;3.50;;;;;;;;;;5108168;28;20446;-68
2022/02/04 12:01:42;;;;;;;59.10;3.27;;;;;;;;;;5108684;28;20536;-68
2022/02/04 12:04:20;;;;;;;59.43;3.97;;;;;;;;;;5108402;28;20748;-68
2022/02/04 12:06:47;;;;;;;59.10;3.57;;;;;;;;;;5102101;28;20820;-68
2022/02/04 12:09:15;;;;;;;59.23;3.70;;;;;;;;;;5094480;28;20446;-67
2022/02/04 12:11:42;;;;;;;58.40;3.03;;;;;;;;;;5092004;28;20451;-68
2022/02/04 12:14:11;;;;;;;58.57;3.17;;;;;;;;;;5094910;28;20778;-68
2022/02/04 12:16:57;;;;;;;61.53;3.60;;;;;;;;;;5094841;28;20505;-68
2022/02/04 12:19:35;;;;;;;59.30;2.97;;;;;;;;;;5094369;28;20533;-68
2022/02/04 12:22:02;;;;;;;59.47;3.73;;;;;;;;;;5094375;28;20830;-68
2022/02/04 12:24:43;;;;;;;58.43;3.10;;;;;;;;;;5094342;28;20474;-68
2022/02/04 12:27:28;;;;;;;58.80;3.60;;;;;;;;;;5094109;28;20800;-68
2022/02/04 12:29:57;;;;;;;58.37;3.60;;;;;;;;;;5094325;28;20508;-69
2022/02/04 12:32:24;;;;;;;61.60;3.37;;;;;;;;;;5093929;28;20447;-68
2022/02/04 12:34:53;;;;;;;58.00;3.10;;;;;;;;;;5094119;28;20477;-67
2022/02/04 12:37:20;;;;;;;58.87;3.17;;;;;;;;;;5094109;28;20451;-68
2022/02/04 12:39:48;;;;;;;58.37;2.87;;;;;;;;;;5094394;28;20534;-68
2022/02/04 12:42:16;;;;;;;58.10;3.00;;;;;;;;;;5093911;28;20453;-68
2022/02/04 12:44:44;;;;;;;58.23;2.97;;;;;;;;;;5091679;28;21025;-69
2022/02/04 12:47:13;;;;;;;58.60;3.10;;;;;;;;;;5093624;28;20450;-67
2022/02/04 12:49:47;;;;;;;58.93;3.40;;;;;;;;;;5094165;28;20504;-66
2022/02/04 12:52:20;;;;;;;58.27;3.30;;;;;;;;;;5094115;28;20529;-67
2022/02/04 12:54:51;;;;;;;58.50;3.40;;;;;;;;;;5093644;28;20485;-68
2022/02/04 12:57:36;;;;;;;59.20;3.20;;;;;;;;;;5093540;28;20454;-68
2022/02/04 13:00:20;;;;;;;58.27;3.10;;;;;;;;;;5094088;28;20512;-67
2022/02/04 13:08:23;;;;;;;58.40;2.90;;;;;;;;;;5114968;28;20441;-67
2022/02/04 13:10:57;;;;;;;60.00;3.40;;;;;;;;;;5114227;28;20529;-68
2022/02/04 13:13:25;;;;;;;59.30;3.20;;;;;;;;;;5114845;28;20767;-68
2022/02/04 13:15:54;;;;;;;58.93;3.10;;;;;;;;;;5112815;28;20471;-68
2022/02/04 13:18:23;;;;;;;58.80;3.20;;;;;;;;;;5113374;28;20455;-67
2022/02/04 13:20:51;;;;;;;59.60;3.23;;;;;;;;;;5106550;28;20439;-68
2022/02/04 13:23:21;;;;;;;61.23;3.50;;;;;;;;;;5093129;28;20975;-72
2022/02/04 13:25:49;;;;;;;59.00;3.50;;;;;;;;;;5093660;28;20442;-71
2022/02/04 13:28:18;;;;;;;58.90;3.00;;;;;;;;;;5093181;28;20470;-69
2022/02/04 13:30:59;;;;;;;59.10;3.70;;;;;;;;;;5093032;28;20542;-69
2022/02/04 13:33:27;;;;;;;58.50;3.53;;;;;;;;;;5092948;28;20469;-68
2022/02/04 13:36:02;;;;;;;60.13;3.60;;;;;;;;;;5093136;28;20471;-67
2022/02/04 13:38:43;;;;;;;58.30;3.33;;;;;;;;;;5092764;28;20493;-71
2022/02/04 13:41:18;;;;;;;59.23;3.60;;;;;;;;;;5092746;28;20439;-66
2022/02/04 13:44:17;;;;;;;61.93;3.50;;;;;;;;;;5092718;28;20473;-67
2022/02/04 13:46:46;;;;;;;58.13;3.03;;;;;;;;;;5090556;28;20439;-67
2022/02/04 13:49:29;;;;;;;60.30;3.30;;;;;;;;;;5092619;28;20454;-67
2022/02/04 13:52:03;;;;;;;59.00;3.20;;;;;;;;;;5093034;28;20451;-69
2022/02/04 13:54:53;;;;;;;58.57;3.13;;;;;;;;;;5092600;28;20509;-68
2022/02/04 13:57:30;;;;;;;58.63;3.50;;;;;;;;;;5092231;28;20479;-68
2022/02/04 14:00:09;;;;;;;58.00;3.03;;;;;;;;;;5092446;28;20848;-68
2022/02/04 14:02:43;;;;;;;58.67;3.33;;;;;;;;;;5092681;28;20457;-68
2022/02/04 14:05:12;;;;;;;58.40;2.83;;;;;;;;;;5092587;28;20446;-67
2022/02/04 14:07:43;;;;;;;58.40;2.90;;;;;;;;;;5092123;28;20454;-68
2022/02/04 14:10:19;;;;;;;57.77;3.03;;;;;;;;;;5092440;28;20943;-67
2022/02/04 14:12:58;;;;;;;57.87;2.77;;;;;;;;;;5092168;28;20449;-68
2022/02/04 14:15:27;;;;;;;58.17;2.80;;;;;;;;;;5092205;28;20949;-67
2022/02/04 14:17:56;;;;;;;58.70;3.10;;;;;;;;;;5090241;28;20823;-68
2022/02/04 14:20:23;;;;;;;57.90;2.90;;;;;;;;;;5092339;28;20461;-68
2022/02/04 14:22:50;;;;;;;58.47;3.20;;;;;;;;;;5091862;28;20541;-68
2022/02/04 14:25:19;;;;;;;58.57;3.10;;;;;;;;;;5092453;28;20526;-68
2022/02/04 14:27:50;;;;;;;59.80;3.10;;;;;;;;;;5092013;28;20542;-68
2022/02/04 14:30:23;;;;;;;58.77;3.37;;;;;;;;;;5092276;28;20837;-68
2022/02/04 14:32:56;;;;;;;60.00;3.20;;;;;;;;;;5092029;28;20475;-68
2022/02/04 14:35:31;;;;;;;58.23;2.90;;;;;;;;;;5091917;28;20474;-68
2022/02/04 14:51:57;;;;;;;61.73;3.30;;;;;;;;;;5071758;28;20451;-71
2022/02/04 14:54:45;;;;;;;59.57;3.23;;;;;;;;;;5071557;28;20463;-70
2022/02/04 15:02:46;;;;;;;61.67;3.40;;;;;;;;;;5071771;28;20427;-70
2022/02/04 15:05:17;;;;;;;59.10;3.63;;;;;;;;;;5078421;28;20476;-71
2022/02/04 15:07:45;;;;;;;59.13;3.10;;;;;;;;;;5091541;28;20450;-70
2022/02/04 15:10:25;;;;;;;58.37;3.20;;;;;;;;;;5091574;28;20520;-71
2022/02/04 15:12:54;;;;;;;58.07;3.10;;;;;;;;;;5091137;28;20836;-71
2022/02/04 15:15:21;;;;;;;58.37;3.23;;;;;;;;;;5091527;28;20544;-71
2022/02/04 15:17:49;;;;;;;58.17;3.00;;;;;;;;;;5091387;28;20609;-71
2022/02/04 15:20:16;;;;;;;59.00;3.40;;;;;;;;;;5091554;28;20537;-71
2022/02/04 15:22:43;;;;;;;59.47;3.50;;;;;;;;;;5091475;28;20485;-71
2022/02/04 15:25:17;;;;;;;57.47;2.67;;;;;;;;;;5091445;28;20535;-72
2022/02/04 15:27:53;;;;;;;58.03;2.83;;;;;;;;;;5091228;28;21021;-71
2022/02/04 15:30:26;;;;;;;58.03;3.00;;;;;;;;;;5091714;28;20508;-71
2022/02/04 15:32:55;;;;;;;59.73;3.27;;;;;;;;;;5091532;28;20913;-71
2022/02/04 15:35:22;;;;;;;58.30;3.00;;;;;;;;;;5091255;28;20819;-71
2022/02/04 15:37:49;;;;;;;58.13;2.83;;;;;;;;;;5089241;28;20490;-72
2022/02/04 15:40:17;;;;;;;58.43;3.17;;;;;;;;;;5091660;28;20541;-72
2022/02/04 15:42:52;;;;;;;58.80;2.90;;;;;;;;;;5093802;28;20447;-72
2022/02/04 15:45:52;;;;;;;60.60;2.87;;;;;;;;;;5095499;28;20517;-71
2022/02/04 15:48:33;;;;;;;58.10;3.10;;;;;;;;;;5094642;28;20466;-71
2022/02/04 15:51:13;;;;;;;58.40;3.37;;;;;;;;;;5095274;28;20820;-71
2022/02/04 15:53:53;;;;;;;59.70;3.07;;;;;;;;;;5095119;28;20466;-71
2022/02/04 15:56:31;;;;;;;58.53;3.27;;;;;;;;;;5094909;28;20482;-71
2022/02/04 15:59:09;;;;;;;58.20;3.00;;;;;;;;;;5094608;28;20461;-72
2022/02/04 16:01:56;;;;;;;58.07;3.00;;;;;;;;;;5095067;28;20978;-72
2022/02/04 16:04:25;;;;;;;58.30;3.07;;;;;;;;;;5094791;28;20934;-71
2022/02/04 16:06:53;;;;;;;59.17;3.50;;;;;;;;;;5094497;28;20443;-71
2022/02/04 16:09:21;;;;;;;58.87;3.07;;;;;;;;;;5092667;28;20538;-71
2022/02/04 16:11:59;;;;;;;58.00;2.97;;;;;;;;;;5094850;28;20454;-70
2022/02/04 16:14:30;;;;;;;58.37;2.90;;;;;;;;;;5094666;28;20474;-70
2022/02/04 16:17:03;;;;;;;58.20;2.87;;;;;;;;;;5094700;28;20954;-70
2022/02/04 16:19:38;;;;;;;58.60;3.13;;;;;;;;;;5094298;28;20509;-70
2022/02/04 16:22:16;;;;;;;58.37;2.97;;;;;;;;;;5094467;28;20450;-71
2022/02/04 16:25:07;;;;;;;57.87;2.83;;;;;;;;;;5094223;28;20531;-71
2022/02/04 16:30:18;;;;;;;57.90;2.77;;;;;;;;;;5094475;28;20774;-71
2022/02/04 16:32:45;;;;;;;57.77;2.70;;;;;;;;;;5094207;28;20538;-71
2022/02/04 16:35:14;;;;;;;58.10;2.77;;;;;;;;;;5094573;28;20485;-70
2022/02/04 16:37:49;;;;;;;58.70;2.60;;;;;;;;;;5093938;28;20530;-70
2022/02/04 16:40:19;;;;;;;57.93;2.83;;;;;;;;;;5092515;28;20825;-71
2022/02/04 16:42:46;;;;;;;58.40;3.13;;;;;;;;;;5094287;28;20443;-70
2022/02/04 16:45:14;;;;;;;58.50;2.90;;;;;;;;;;5094385;28;20478;-71
2022/02/04 16:47:41;;;;;;;58.50;3.10;;;;;;;;;;5093893;28;20566;-69
2022/02/04 16:50:09;;;;;;;58.10;2.90;;;;;;;;;;5094073;28;20534;-70
2022/02/04 16:52:37;;;;;;;57.90;3.00;;;;;;;;;;5093758;28;20936;-71
2022/02/04 16:55:05;;;;;;;58.30;3.13;;;;;;;;;;5093741;28;20541;-71
2022/02/04 16:57:32;;;;;;;58.67;2.80;;;;;;;;;;5093799;28;20487;-70
2022/02/04 17:00:08;;;;;;;58.07;3.13;;;;;;;;;;5094105;28;20486;-71
2022/02/04 17:02:36;;;;;;;58.17;2.70;;;;;;;;;;5093986;28;20455;-70
2022/02/04 17:05:03;;;;;;;58.37;3.43;;;;;;;;;;5093788;28;20478;-71
2022/02/04 17:07:35;;;;;;;58.37;2.67;;;;;;;;;;5093394;28;20479;-70
2022/02/04 17:10:04;;;;;;;58.47;3.00;;;;;;;;;;5093478;28;20504;-72
2022/02/04 17:12:41;;;;;;;58.00;2.67;;;;;;;;;;5091559;28;21045;-70
2022/02/04 17:15:08;;;;;;;58.40;2.90;;;;;;;;;;5093779;28;20833;-70
2022/02/04 17:17:36;;;;;;;60.27;3.27;;;;;;;;;;5093143;28;20486;-70
2022/02/04 17:20:07;;;;;;;58.10;2.90;;;;;;;;;;5093323;28;20458;-70
2022/02/04 17:22:36;;;;;;;58.40;3.00;;;;;;;;;;5093500;28;20549;-70
2022/02/04 17:25:09;;;;;;;58.30;2.80;;;;;;;;;;5093651;28;20447;-71
2022/02/04 17:27:36;;;;;;;58.40;3.20;;;;;;;;;;5093243;28;21031;-70
2022/02/04 17:30:04;;;;;;;58.30;2.40;;;;;;;;;;5093475;28;20544;-71
2022/02/04 17:32:31;;;;;;;59.90;3.27;;;;;;;;;;5092892;28;20455;-70
2022/02/04 17:34:59;;;;;;;57.67;2.53;;;;;;;;;;5093451;28;20550;-70
2022/02/04 17:37:26;;;;;;;57.47;2.77;;;;;;;;;;5092924;28;20482;-71
2022/02/04 17:39:55;;;;;;;58.10;2.73;;;;;;;;;;5093105;28;20541;-70
2022/02/04 17:42:26;;;;;;;57.80;2.73;;;;;;;;;;5092925;28;20879;-70
2022/02/04 17:44:53;;;;;;;58.20;2.80;;;;;;;;;;5091018;28;20479;-70
2022/02/04 17:47:24;;;;;;;58.77;3.07;;;;;;;;;;5092927;28;20447;-70
2022/02/04 17:49:57;;;;;;;58.07;3.00;;;;;;;;;;5093057;28;20447;-70
2022/02/04 17:52:34;;;;;;;58.50;2.67;;;;;;;;;;5092845;28;20453;-70
2022/02/04 17:55:05;;;;;;;62.00;2.80;;;;;;;;;;5092666;28;20454;-71
2022/02/04 17:57:39;;;;;;;58.20;2.93;;;;;;;;;;5092300;28;20529;-70
2022/02/04 18:03:04;;;;;;;58.57;3.27;;;;;;;;;;5092667;28;20440;-70
2022/02/04 18:08:12;;;;;;;59.40;3.67;;;;;;;;;;5091126;28;20488;-70
2022/02/04 18:10:39;;;;;;;59.30;3.70;;;;;;;;;;5092669;28;20538;-70
2022/02/04 18:13:09;;;;;;;63.10;3.72;;;;;;;;;;5085742;28;20551;-70
2022/02/04 18:15:41;;;;;;;58.40;3.07;;;;;;;;;;5091521;28;20208;-72
2022/02/04 18:18:08;;;;;;;62.50;3.00;;;;;;;;;;5091215;28;20439;-70
2022/02/04 18:20:35;;;;;;;58.50;3.07;;;;;;;;;;5090770;28;20308;-69
2022/02/04 18:23:02;;;;;;;58.10;3.03;;;;;;;;;;5092290;28;20523;-69
2022/02/04 18:25:30;;;;;;;58.20;3.17;;;;;;;;;;5092298;28;20989;-69
2022/02/04 18:27:57;;;;;;;57.90;2.70;;;;;;;;;;5092096;28;20439;-69
2022/02/04 18:30:26;;;;;;;58.70;3.17;;;;;;;;;;5091988;28;20482;-69
2022/02/04 18:32:53;;;;;;;57.97;2.90;;;;;;;;;;5091791;28;20467;-69
2022/02/04 18:35:20;;;;;;;58.30;3.10;;;;;;;;;;5092291;28;20485;-68
2022/02/04 18:37:55;;;;;;;62.20;4.30;;;;;;;;;;5091595;28;21089;-68
2022/02/04 18:40:54;;;;;;;58.30;2.77;;;;;;;;;;5091960;28;20490;-68
2022/02/04 18:43:37;;;;;;;68.90;7.33;;;;;;;;;;5091656;28;20891;-68
2022/02/04 18:46:13;;;;;;;69.13;8.10;;;;;;;;;;5091919;28;20541;-69
2022/02/04 18:48:46;;;;;;;59.10;3.37;;;;;;;;;;5091893;28;20446;-69
2022/02/04 18:54:11;;;;;;;59.20;3.70;;;;;;;;;;5090925;28;20459;-69
2022/02/04 18:57:06;;;;;;;58.77;2.90;;;;;;;;;;5091724;28;20462;-69
2022/02/04 18:59:38;;;;;;;58.10;2.90;;;;;;;;;;5091523;28;20951;-69
2022/02/04 19:02:07;;;;;;;58.30;3.30;;;;;;;;;;5091526;28;20825;-69
2022/02/04 19:04:39;;;;;;;59.87;4.37;;;;;;;;;;5091909;28;20501;-70
2022/02/04 19:07:11;;;;;;;58.50;3.47;;;;;;;;;;5091558;28;20446;-69
2022/02/04 19:09:41;;;;;;;59.63;3.13;;;;;;;;;;5091776;28;20950;-69
2022/02/04 19:12:10;;;;;;;57.87;2.90;;;;;;;;;;5091785;28;20455;-69
2022/02/04 19:14:46;;;;;;;58.37;3.30;;;;;;;;;;5091386;28;20470;-69
2022/02/04 19:17:22;;;;;;;58.03;2.90;;;;;;;;;;5093266;28;20994;-69
2022/02/04 19:19:55;;;;;;;58.03;3.23;;;;;;;;;;5095673;28;20458;-69
2022/02/04 19:22:31;;;;;;;58.17;3.00;;;;;;;;;;5095671;28;20955;-69